createdAt,value
2019-05-11T00:01:22.820Z,4.70
2019-05-11T00:03:51.330Z,5.07
2019-05-11T00:06:19.845Z,4.00
2019-05-11T00:08:48.356Z,3.27
2019-05-11T00:11:17.125Z,2.50
2019-05-11T00:13:45.883Z,4.00
2019-05-11T00:16:14.393Z,3.20
2019-05-11T00:18:42.912Z,6.50
2019-05-11T00:21:11.422Z,3.20
2019-05-11T00:23:39.928Z,2.60
2019-05-11T00:26:08.435Z,3.53
2019-05-11T00:28:36.995Z,3.37
2019-05-11T00:31:05.456Z,3.90
2019-05-11T00:33:33.962Z,2.50
2019-05-11T00:36:02.486Z,4.70
2019-05-11T00:38:30.992Z,3.27
2019-05-11T00:40:59.572Z,3.20
2019-05-11T00:43:28.450Z,4.13
2019-05-11T00:45:56.964Z,3.80
2019-05-11T00:48:25.497Z,7.60
2019-05-11T00:50:54.009Z,4.30
2019-05-11T00:53:22.516Z,4.10
2019-05-11T00:55:51.020Z,5.83
2019-05-11T00:58:19.540Z,4.40
2019-05-11T01:00:48.057Z,4.43
2019-05-11T01:03:16.577Z,5.00
2019-05-11T01:05:48.174Z,4.70
2019-05-11T01:08:16.632Z,4.20
2019-05-11T01:10:45.139Z,4.20
2019-05-11T01:13:13.638Z,5.30
2019-05-11T01:15:42.212Z,4.60
2019-05-11T01:18:10.711Z,9.70
2019-05-11T01:20:39.282Z,6.13
2019-05-11T01:23:07.798Z,4.67
2019-05-11T01:25:36.312Z,4.70
2019-05-11T01:28:04.833Z,6.83
2019-05-11T01:30:33.323Z,4.73
2019-05-11T01:33:01.898Z,4.77
2019-05-11T01:35:30.404Z,5.07
2019-05-11T01:37:58.932Z,5.80
2019-05-11T01:40:27.437Z,7.37
2019-05-11T01:42:55.950Z,6.40
2019-05-11T01:45:24.455Z,7.20
2019-05-11T01:47:52.957Z,5.70
2019-05-11T01:50:21.460Z,6.33
2019-05-11T01:52:49.968Z,6.27
2019-05-11T01:55:18.456Z,6.33
2019-05-11T01:57:47.102Z,5.80
2019-05-11T02:00:15.646Z,5.07
2019-05-11T02:02:44.157Z,4.93
2019-05-11T02:05:31.999Z,5.33
2019-05-11T02:08:01.442Z,7.20
2019-05-11T02:10:30.484Z,6.10
2019-05-11T02:12:59.079Z,5.53
2019-05-11T02:15:27.627Z,5.90
2019-05-11T02:17:56.173Z,7.20
2019-05-11T02:20:24.691Z,3.77
2019-05-11T02:22:53.198Z,3.10
2019-05-11T02:25:21.963Z,3.83
2019-05-11T02:27:50.773Z,4.80
2019-05-11T02:30:20.182Z,6.30
2019-05-11T02:32:48.877Z,3.93
2019-05-11T02:35:17.738Z,3.27
2019-05-11T02:37:46.235Z,4.07
2019-05-11T02:40:14.738Z,3.80
2019-05-11T02:42:43.518Z,4.23
2019-05-11T02:45:12.285Z,3.60
2019-05-11T02:47:40.927Z,4.93
2019-05-11T02:50:09.443Z,3.50
2019-05-11T02:52:37.963Z,4.07
2019-05-11T02:55:06.692Z,2.50
2019-05-11T02:57:35.177Z,6.67
2019-05-11T03:00:04.509Z,2.70
2019-05-11T03:02:32.991Z,2.53
2019-05-11T03:05:01.514Z,2.50
2019-05-11T03:07:30.266Z,2.60
2019-05-11T03:09:58.766Z,2.80
2019-05-11T03:12:27.415Z,2.57
2019-05-11T03:14:55.913Z,2.47
2019-05-11T03:17:28.937Z,2.60
2019-05-11T03:19:58.098Z,2.50
2019-05-11T03:22:26.588Z,4.20
2019-05-11T03:24:55.177Z,1.97
2019-05-11T03:27:23.659Z,2.90
2019-05-11T03:29:52.166Z,5.13
2019-05-11T03:32:20.938Z,2.20
2019-05-11T03:34:49.430Z,2.40
2019-05-11T03:37:18.200Z,2.90
2019-05-11T03:39:46.689Z,2.53
2019-05-11T03:42:15.484Z,2.90
2019-05-11T03:44:44.147Z,3.30
2019-05-11T03:47:12.637Z,2.10
2019-05-11T03:49:41.222Z,2.40
2019-05-11T03:52:10.208Z,2.43
2019-05-11T03:54:38.776Z,2.73
2019-05-11T03:57:07.282Z,2.70
2019-05-11T03:59:35.781Z,3.00
2019-05-11T04:02:04.337Z,3.70
2019-05-11T04:04:32.850Z,5.10
2019-05-11T04:07:01.426Z,3.70
2019-05-11T04:09:30.378Z,4.47
2019-05-11T04:11:59.302Z,3.60
2019-05-11T04:14:27.787Z,4.00
2019-05-11T04:16:56.288Z,4.10
2019-05-11T04:19:24.788Z,4.20
2019-05-11T04:21:53.267Z,4.60
2019-05-11T04:24:21.841Z,3.70
2019-05-11T04:26:50.439Z,4.90
2019-05-11T04:29:19.243Z,3.90
2019-05-11T04:31:47.750Z,4.53
2019-05-11T04:34:16.246Z,4.47
2019-05-11T04:36:44.745Z,3.03
2019-05-11T04:39:13.238Z,4.07
2019-05-11T04:41:41.798Z,3.83
2019-05-11T04:44:10.488Z,5.80
2019-05-11T04:46:38.984Z,4.53
2019-05-11T04:49:07.529Z,5.73
2019-05-11T04:51:36.024Z,4.67
2019-05-11T04:54:04.509Z,5.23
2019-05-11T04:56:33.353Z,5.20
2019-05-11T04:59:01.864Z,4.73
2019-05-11T05:01:30.484Z,5.40
2019-05-11T05:04:13.299Z,4.60
2019-05-11T05:06:29.335Z,5.40
2019-05-11T05:09:03.034Z,6.47
2019-05-11T05:11:30.439Z,6.77
2019-05-11T05:14:02.139Z,5.73
2019-05-11T05:16:31.399Z,7.57
2019-05-11T05:18:58.828Z,5.70
2019-05-11T05:21:27.338Z,9.00
2019-05-11T05:23:55.835Z,8.17
2019-05-11T05:26:24.318Z,8.37
2019-05-11T05:28:52.816Z,7.13
2019-05-11T05:31:21.353Z,8.10
2019-05-11T05:33:50.197Z,5.67
2019-05-11T05:36:18.716Z,6.47
2019-05-11T05:38:47.227Z,6.07
2019-05-11T05:41:15.711Z,6.00
2019-05-11T05:43:44.207Z,7.10
2019-05-11T05:46:12.696Z,5.03
2019-05-11T05:48:41.200Z,6.63
2019-05-11T05:51:09.999Z,6.60
2019-05-11T05:53:38.495Z,5.90
2019-05-11T05:56:07.208Z,6.83
2019-05-11T05:58:35.709Z,6.67
2019-05-11T06:01:04.226Z,5.83
2019-05-11T06:03:32.716Z,6.53
2019-05-11T06:06:01.215Z,6.10
2019-05-11T06:08:29.927Z,7.27
2019-05-11T06:10:58.456Z,5.60
2019-05-11T06:13:44.029Z,6.70
2019-05-11T06:15:57.159Z,6.53
2019-05-11T06:18:25.675Z,7.07
2019-05-11T06:20:54.169Z,5.77
2019-05-11T06:23:22.736Z,6.27
2019-05-11T06:25:51.289Z,5.70
2019-05-11T06:28:19.803Z,6.43
2019-05-11T06:30:48.378Z,5.53
2019-05-11T06:33:16.865Z,5.23
2019-05-11T06:35:45.514Z,5.93
2019-05-11T06:38:14.009Z,4.47
2019-05-11T06:40:42.487Z,3.80
2019-05-11T06:43:10.985Z,3.73
2019-05-11T06:45:39.795Z,2.97
2019-05-11T06:48:08.472Z,2.73
2019-05-11T06:50:36.945Z,2.97
2019-05-11T06:53:05.439Z,2.40
2019-05-11T06:55:33.997Z,3.17
2019-05-11T06:58:02.577Z,2.10
2019-05-11T07:00:31.498Z,2.57
2019-05-11T07:02:59.987Z,2.60
2019-05-11T07:05:28.494Z,2.33
2019-05-11T07:07:56.992Z,2.47
2019-05-11T07:10:25.517Z,2.50
2019-05-11T07:12:54.026Z,1.50
2019-05-11T07:15:22.978Z,2.57
2019-05-11T07:17:51.747Z,2.27
2019-05-11T07:20:20.241Z,1.83
2019-05-11T07:22:48.834Z,2.10
2019-05-11T07:25:17.359Z,2.03
2019-05-11T07:27:45.842Z,2.13
2019-05-11T07:30:14.362Z,2.10
2019-05-11T07:32:42.869Z,2.73
2019-05-11T07:35:11.551Z,2.70
2019-05-11T07:37:40.032Z,3.37
2019-05-11T07:40:09.112Z,3.90
2019-05-11T07:42:38.281Z,4.87
2019-05-11T07:45:08.912Z,3.80
2019-05-11T07:47:38.111Z,3.63
2019-05-11T07:50:08.205Z,2.17
2019-05-11T07:52:37.856Z,2.37
2019-05-11T07:55:08.549Z,3.70
2019-05-11T07:57:39.136Z,1.80
2019-05-11T08:00:08.082Z,1.67
2019-05-11T08:02:38.712Z,1.73
2019-05-11T08:05:08.686Z,2.30
2019-05-11T08:07:37.933Z,2.17
2019-05-11T08:10:08.172Z,10.13
2019-05-11T08:12:39.220Z,2.67
2019-05-11T08:15:12.475Z,6.10
2019-05-11T08:17:38.267Z,1.63
2019-05-11T08:20:08.413Z,2.07
2019-05-11T08:22:37.764Z,2.53
2019-05-11T08:25:09.000Z,6.00
2019-05-11T08:27:37.888Z,1.97
2019-05-11T08:30:08.497Z,1.63
2019-05-11T08:32:38.668Z,1.70
2019-05-11T08:35:08.587Z,1.60
2019-05-11T08:37:38.829Z,1.90
2019-05-11T08:40:07.952Z,2.20
2019-05-11T08:42:37.864Z,2.10
2019-05-11T08:45:18.898Z,1.50
2019-05-11T08:47:37.726Z,1.40
2019-05-11T08:50:08.071Z,1.40
2019-05-11T08:52:38.640Z,1.40
2019-05-11T08:55:08.372Z,1.43
2019-05-11T08:57:38.749Z,1.33
2019-05-11T09:00:08.501Z,2.30
2019-05-11T09:02:38.347Z,3.10
2019-05-11T09:05:08.204Z,4.40
2019-05-11T09:07:38.376Z,7.53
2019-05-11T09:10:08.169Z,6.27
2019-05-11T09:12:38.233Z,3.77
2019-05-11T09:15:08.815Z,3.00
2019-05-11T09:17:38.268Z,1.53
2019-05-11T09:20:08.688Z,2.27
2019-05-11T09:22:38.083Z,1.40
2019-05-11T09:25:08.809Z,1.30
2019-05-11T09:27:37.747Z,3.30
2019-05-11T09:30:08.295Z,2.10
2019-05-11T09:32:38.516Z,1.40
2019-05-11T09:35:08.285Z,0.90
2019-05-11T09:37:38.046Z,1.33
2019-05-11T09:40:07.854Z,0.80
2019-05-11T09:42:38.680Z,1.20
2019-05-11T09:45:08.013Z,1.00
2019-05-11T09:47:38.674Z,1.00
2019-05-11T09:50:08.605Z,0.90
2019-05-11T09:52:38.457Z,1.00
2019-05-11T09:55:08.711Z,0.73
2019-05-11T09:57:38.285Z,1.17
2019-05-11T10:00:08.664Z,0.70
2019-05-11T10:02:38.534Z,0.97
2019-05-11T10:05:08.277Z,0.80
2019-05-11T10:07:38.071Z,0.60
2019-05-11T10:10:09.159Z,0.90
2019-05-11T10:12:38.071Z,0.70
2019-05-11T10:15:08.343Z,1.10
2019-05-11T10:17:38.244Z,1.50
2019-05-11T10:20:09.155Z,0.67
2019-05-11T10:22:38.438Z,0.70
2019-05-11T10:25:08.908Z,1.77
2019-05-11T10:27:38.505Z,0.90
2019-05-11T10:30:08.287Z,0.70
2019-05-11T10:32:37.888Z,2.77
2019-05-11T10:35:07.980Z,1.07
2019-05-11T10:37:38.924Z,0.80
2019-05-11T10:40:09.562Z,0.60
2019-05-11T10:42:37.969Z,0.90
2019-05-11T10:45:08.963Z,0.80
2019-05-11T10:47:38.227Z,0.70
2019-05-11T10:50:08.598Z,1.40
2019-05-11T10:52:38.000Z,0.80
2019-05-11T10:55:08.679Z,0.90
2019-05-11T10:57:38.612Z,0.73
2019-05-11T11:00:08.393Z,0.90
2019-05-11T11:02:38.429Z,0.70
2019-05-11T11:05:08.105Z,0.80
2019-05-11T11:07:38.400Z,0.80
2019-05-11T11:10:08.792Z,0.70
2019-05-11T11:12:38.496Z,0.80
2019-05-11T11:15:07.781Z,0.80
2019-05-11T11:17:38.200Z,0.93
2019-05-11T11:20:08.603Z,0.80
2019-05-11T11:22:42.752Z,1.10
2019-05-11T11:25:07.832Z,1.30
2019-05-11T11:27:38.077Z,1.00
2019-05-11T11:30:08.936Z,1.30
2019-05-11T11:32:38.314Z,1.20
2019-05-11T11:35:08.538Z,1.97
2019-05-11T11:37:38.640Z,1.90
2019-05-11T11:40:08.339Z,1.00
2019-05-11T11:42:37.778Z,1.40
2019-05-11T11:45:08.020Z,2.30
2019-05-11T11:47:38.415Z,3.50
2019-05-11T11:50:09.111Z,2.20
2019-05-11T11:52:38.292Z,1.83
2019-05-11T11:55:08.273Z,1.50
2019-05-11T11:57:38.013Z,1.90
2019-05-11T12:00:09.066Z,1.30
2019-05-11T12:02:38.824Z,1.73
2019-05-11T12:05:08.941Z,1.53
2019-05-11T12:07:38.654Z,1.27
2019-05-11T12:10:07.935Z,1.50
2019-05-11T12:12:38.716Z,1.30
2019-05-11T12:15:08.796Z,1.60
2019-05-11T12:17:37.812Z,1.50
2019-05-11T12:20:08.750Z,1.30
2019-05-11T12:22:38.602Z,2.00
2019-05-11T12:25:08.053Z,1.10
2019-05-11T12:27:38.402Z,1.50
2019-05-11T12:30:08.929Z,1.20
2019-05-11T12:32:42.662Z,1.10
2019-05-11T12:35:11.257Z,1.40
2019-05-11T12:37:40.009Z,1.43
2019-05-11T12:40:08.730Z,1.67
2019-05-11T12:42:38.093Z,6.80
2019-05-11T12:45:07.596Z,1.47
2019-05-11T12:47:38.372Z,1.40
2019-05-11T12:50:08.026Z,2.20
2019-05-11T12:52:38.281Z,1.40
2019-05-11T12:55:08.677Z,1.23
2019-05-11T12:57:38.631Z,1.20
2019-05-11T13:00:08.763Z,1.40
2019-05-11T13:02:38.761Z,1.73
2019-05-11T13:05:08.666Z,1.50
2019-05-11T13:07:39.221Z,1.70
2019-05-11T13:10:08.487Z,1.30
2019-05-11T13:12:38.555Z,1.27
2019-05-11T13:15:08.299Z,1.10
2019-05-11T13:17:40.162Z,0.87
2019-05-11T13:20:08.655Z,1.93
2019-05-11T13:22:38.239Z,1.17
2019-05-11T13:25:08.537Z,1.10
2019-05-11T13:27:38.746Z,1.20
2019-05-11T13:30:08.063Z,2.73
2019-05-11T13:32:38.542Z,1.30
2019-05-11T13:35:09.166Z,1.67
2019-05-11T13:37:38.655Z,1.07
2019-05-11T13:40:08.723Z,1.50
2019-05-11T13:42:38.613Z,1.17
2019-05-11T13:45:08.526Z,1.10
2019-05-11T13:47:50.920Z,1.40
2019-05-11T13:50:08.455Z,2.83
2019-05-11T13:52:38.603Z,1.03
2019-05-11T13:55:07.854Z,1.40
2019-05-11T13:57:38.082Z,1.10
2019-05-11T14:00:08.402Z,1.10
2019-05-11T14:02:37.961Z,1.33
2019-05-11T14:05:08.783Z,1.37
2019-05-11T14:07:38.176Z,1.97
2019-05-11T14:10:08.035Z,1.80
2019-05-11T14:12:38.593Z,1.83
2019-05-11T14:15:08.528Z,2.00
2019-05-11T14:17:37.999Z,1.70
2019-05-11T14:20:08.817Z,1.90
2019-05-11T14:22:38.614Z,2.07
2019-05-11T14:25:08.066Z,2.10
2019-05-11T14:27:39.083Z,2.10
2019-05-11T14:30:08.553Z,1.87
2019-05-11T14:32:38.940Z,1.60
2019-05-11T14:35:12.147Z,2.30
2019-05-11T14:37:38.286Z,2.03
2019-05-11T14:40:08.746Z,2.20
2019-05-11T14:42:38.146Z,1.90
2019-05-11T14:45:08.442Z,2.00
2019-05-11T14:47:38.621Z,2.70
2019-05-11T14:50:08.598Z,2.00
2019-05-11T14:52:38.785Z,3.03
2019-05-11T14:55:08.288Z,2.03
2019-05-11T14:57:39.389Z,2.27
2019-05-11T15:00:08.326Z,2.20
2019-05-11T15:02:48.871Z,2.40
2019-05-11T15:05:18.227Z,2.70
2019-05-11T15:07:47.944Z,2.57
2019-05-11T15:10:18.793Z,3.40
2019-05-11T15:12:48.819Z,3.93
2019-05-11T15:15:18.724Z,2.60
2019-05-11T15:17:49.300Z,3.20
2019-05-11T15:20:18.501Z,3.70
2019-05-11T15:22:48.873Z,3.90
2019-05-11T15:25:19.447Z,4.00
2019-05-11T15:27:48.917Z,3.90
2019-05-11T15:30:18.225Z,3.83
2019-05-11T15:32:48.235Z,3.70
2019-05-11T15:35:18.647Z,4.37
2019-05-11T15:37:48.123Z,5.63
2019-05-11T15:40:18.802Z,4.73
2019-05-11T15:42:48.646Z,4.90
2019-05-11T15:45:19.881Z,5.43
2019-05-11T15:47:48.927Z,5.80
2019-05-11T15:50:18.967Z,6.70
2019-05-11T15:52:48.780Z,6.70
2019-05-11T15:55:18.882Z,7.20
2019-05-11T15:57:48.377Z,8.80
2019-05-11T16:00:16.994Z,9.13
2019-05-11T16:02:45.564Z,11.20
2019-05-11T16:05:14.182Z,11.43
2019-05-11T16:07:43.131Z,11.13
2019-05-11T16:10:12.001Z,11.93
2019-05-11T16:12:40.495Z,13.63
2019-05-11T16:15:09.029Z,12.73
2019-05-11T16:17:40.113Z,13.33
2019-05-11T16:20:08.784Z,12.10
2019-05-11T16:22:38.526Z,13.23
2019-05-11T16:25:08.667Z,13.60
2019-05-11T16:27:37.994Z,14.00
2019-05-11T16:30:06.998Z,14.47
2019-05-11T16:32:35.494Z,13.73
2019-05-11T16:35:04.788Z,13.70
2019-05-11T16:37:33.288Z,14.03
2019-05-11T16:40:02.469Z,14.33
2019-05-11T16:42:30.991Z,15.20
2019-05-11T16:44:59.774Z,13.47
2019-05-11T16:47:28.590Z,15.27
2019-05-11T16:49:58.007Z,15.53
2019-05-11T16:52:28.021Z,15.57
2019-05-11T16:54:58.350Z,14.63
2019-05-11T16:57:26.933Z,14.70
2019-05-11T16:59:55.489Z,15.07
2019-05-11T17:02:24.014Z,14.90
2019-05-11T17:04:52.602Z,15.27
2019-05-11T17:07:21.113Z,14.43
2019-05-11T17:09:49.835Z,13.97
2019-05-11T17:12:18.374Z,15.70
2019-05-11T17:14:58.426Z,17.07
2019-05-11T17:17:27.849Z,15.83
2019-05-11T17:19:58.886Z,14.43
2019-05-11T17:22:28.209Z,16.20
2019-05-11T17:24:58.958Z,14.77
2019-05-11T17:27:28.540Z,14.47
2019-05-11T17:29:59.326Z,14.43
2019-05-11T17:32:29.364Z,13.97
2019-05-11T17:34:58.341Z,13.70
2019-05-11T17:37:28.600Z,16.50
2019-05-11T17:39:58.632Z,12.87
2019-05-11T17:42:27.233Z,14.67
2019-05-11T17:44:55.830Z,13.40
2019-05-11T17:47:24.397Z,13.30
2019-05-11T17:50:00.082Z,12.23
2019-05-11T17:52:23.139Z,11.67
2019-05-11T17:54:55.044Z,10.70
2019-05-11T17:57:21.900Z,9.90
2019-05-11T17:59:50.418Z,10.57
2019-05-11T18:02:18.924Z,8.60
2019-05-11T18:04:49.357Z,12.17
2019-05-11T18:07:27.592Z,9.57
2019-05-11T18:09:48.892Z,10.73
2019-05-11T18:12:17.752Z,10.03
2019-05-11T18:14:48.290Z,10.73
2019-05-11T18:17:17.900Z,9.20
2019-05-11T18:19:46.587Z,10.93
2019-05-11T18:22:15.096Z,9.13
2019-05-11T18:24:43.837Z,10.00
2019-05-11T18:27:12.635Z,9.20
2019-05-11T18:29:41.158Z,9.27
2019-05-11T18:32:09.669Z,9.90
2019-05-11T18:34:38.477Z,9.03
2019-05-11T18:37:08.803Z,8.43
2019-05-11T18:39:37.873Z,8.50
2019-05-11T18:42:08.278Z,8.53
2019-05-11T18:44:37.954Z,8.27
2019-05-11T18:47:08.686Z,9.70
2019-05-11T18:49:38.108Z,8.73
2019-05-11T18:52:08.240Z,10.33
2019-05-11T18:54:38.471Z,11.37
2019-05-11T18:57:08.143Z,9.63
2019-05-11T18:59:37.881Z,9.83
2019-05-11T19:02:08.423Z,9.63
2019-05-11T19:04:38.175Z,9.70
2019-05-11T19:07:16.242Z,12.93
2019-05-11T19:09:37.961Z,8.67
2019-05-11T19:12:08.545Z,8.70
2019-05-11T19:14:38.545Z,8.27
2019-05-11T19:17:07.817Z,9.67
2019-05-11T19:19:38.019Z,9.07
2019-05-11T19:22:08.839Z,12.17
2019-05-11T19:24:38.280Z,11.10
2019-05-11T19:27:08.116Z,9.40
2019-05-11T19:29:37.887Z,9.80
2019-05-11T19:32:08.286Z,8.50
2019-05-11T19:34:38.857Z,9.80
2019-05-11T19:37:08.664Z,10.33
2019-05-11T19:39:38.438Z,11.73
2019-05-11T19:42:07.832Z,8.97
2019-05-11T19:44:38.444Z,9.40
2019-05-11T19:47:08.939Z,9.63
2019-05-11T19:49:38.436Z,7.93
2019-05-11T19:52:08.602Z,10.73
2019-05-11T19:54:38.253Z,8.83
2019-05-11T19:57:08.364Z,8.00
2019-05-11T19:59:38.692Z,9.20
2019-05-11T20:02:08.390Z,9.23
2019-05-11T20:04:38.715Z,8.90
2019-05-11T20:07:08.729Z,8.07
2019-05-11T20:09:38.700Z,8.40
2019-05-11T20:12:07.757Z,7.70
2019-05-11T20:14:37.876Z,8.33
2019-05-11T20:17:08.785Z,9.00
2019-05-11T20:19:38.468Z,8.23
2019-05-11T20:22:06.993Z,8.60
2019-05-11T20:24:35.506Z,9.00
2019-05-11T20:27:03.996Z,9.30
2019-05-11T20:29:32.514Z,11.70
2019-05-11T20:32:01.019Z,14.50
2019-05-11T20:34:29.680Z,10.70
2019-05-11T20:36:58.734Z,12.50
2019-05-11T20:39:28.696Z,13.77
2019-05-11T20:41:58.150Z,11.70
2019-05-11T20:44:28.683Z,12.37
2019-05-11T20:46:58.061Z,10.93
2019-05-11T20:49:28.247Z,10.57
2019-05-11T20:51:58.003Z,10.23
2019-05-11T20:54:28.176Z,10.03
2019-05-11T20:56:58.437Z,13.03
2019-05-11T20:59:28.962Z,9.20
2019-05-11T21:01:58.619Z,9.97
2019-05-11T21:04:28.254Z,11.00
2019-05-11T21:06:57.966Z,12.20
2019-05-11T21:09:28.779Z,10.20
2019-05-11T21:11:58.881Z,12.17
2019-05-11T21:14:28.849Z,11.97
2019-05-11T21:16:58.637Z,15.17
2019-05-11T21:19:28.320Z,15.40
2019-05-11T21:21:59.005Z,12.10
2019-05-11T21:24:28.127Z,16.43
2019-05-11T21:26:58.465Z,14.63
2019-05-11T21:29:28.259Z,12.30
2019-05-11T21:31:58.901Z,12.50
2019-05-11T21:34:28.096Z,11.87
2019-05-11T21:36:57.077Z,12.10
2019-05-11T21:39:28.508Z,11.37
2019-05-11T21:41:58.246Z,12.93
2019-05-11T21:44:27.817Z,14.23
2019-05-11T21:46:56.557Z,11.43
2019-05-11T21:49:25.112Z,11.27
2019-05-11T21:52:03.896Z,12.93
2019-05-11T21:54:24.041Z,12.27
2019-05-11T21:56:52.630Z,14.80
2019-05-11T21:59:21.126Z,12.33
2019-05-11T22:01:49.976Z,10.73
2019-05-11T22:04:19.194Z,11.00
2019-05-11T22:06:48.432Z,11.83
2019-05-11T22:09:18.586Z,10.93
2019-05-11T22:11:48.689Z,9.60
2019-05-11T22:14:17.271Z,13.00
2019-05-11T22:16:47.849Z,10.30
2019-05-11T22:19:17.782Z,10.37
2019-05-11T22:21:49.422Z,9.40
2019-05-11T22:24:17.935Z,9.87
2019-05-11T22:26:46.531Z,9.40
2019-05-11T22:29:15.038Z,11.13
2019-05-11T22:31:43.531Z,13.83
2019-05-11T22:34:12.022Z,12.27
2019-05-11T22:36:40.514Z,12.57
2019-05-11T22:39:09.008Z,10.90
2019-05-11T22:41:39.644Z,15.13
2019-05-11T22:44:10.699Z,15.57
2019-05-11T22:46:38.514Z,15.13
2019-05-11T22:49:08.459Z,14.67
2019-05-11T22:51:37.184Z,12.50
2019-05-11T22:54:08.154Z,11.70
2019-05-11T22:56:38.056Z,13.20
2019-05-11T22:59:08.353Z,10.97
2019-05-11T23:01:37.833Z,10.93
2019-05-11T23:04:06.684Z,11.17
2019-05-11T23:06:35.182Z,12.50
2019-05-11T23:09:03.878Z,12.40
2019-05-11T23:11:32.389Z,12.73
2019-05-11T23:14:00.889Z,13.33
2019-05-11T23:16:29.431Z,13.87
2019-05-11T23:18:58.179Z,11.97
2019-05-11T23:21:29.962Z,11.70
2019-05-11T23:23:58.352Z,12.33
2019-05-11T23:26:28.209Z,12.60
2019-05-11T23:28:57.981Z,13.43
2019-05-11T23:31:27.837Z,13.90
2019-05-11T23:33:57.900Z,12.57
2019-05-11T23:36:27.933Z,12.90
2019-05-11T23:38:58.582Z,12.70
2019-05-11T23:41:28.805Z,12.77
2019-05-11T23:43:58.323Z,12.43
2019-05-11T23:46:28.491Z,13.47
2019-05-11T23:48:58.139Z,13.63
2019-05-11T23:51:28.261Z,14.00
2019-05-11T23:53:58.897Z,14.87
2019-05-11T23:56:28.164Z,16.57
2019-05-11T23:58:57.866Z,14.40
